CheckWX is a tool to help pilots better visualize weather data.  It is not intended as a substitute for an official pre-flight weather briefing.

19:41:53 UTC

KFYV METAR
Drake Field Airport
Fayetteville, Arkansas, USA
Current

49 mins ago

KFYV 161853Z 11006KT 10SM OVC026 14/08 A3000 RMK AO2 SLP158 T01440078
Observed
Feb-16 @ 18:53 UTC
Wind
  • 110° at 6 KTS
Visibility
10 SM
Flight Rules
MVFR
Cloud Levels
  • Overcast at 2,600' AGL
Temperature
14°C / 57°F
Dewpoint
C / 46°F
Humidity
67%
Altimeter
30" Hg
Pressure
1015.92 hPa
Previous

2 hours ago

KFYV 161753Z 07005KT 10SM OVC024 13/07 A3004 RMK AO2 SLP171 T01280072 10128 20044 58008
Observed
Feb-16 @ 17:53 UTC
Wind
  • 070° at 5 KTS
Visibility
10 SM
Flight Rules
MVFR
Cloud Levels
  • Overcast at 2,400' AGL
Temperature
13°C / 55°F
Dewpoint
C / 45°F
Humidity
67%
Altimeter
30.04" Hg
Pressure
1017.32 hPa
Previous

3 hours ago

KFYV 161653Z 02003KT 10SM OVC023 12/06 A3006 RMK AO2 SLP180 T01170061
Observed
Feb-16 @ 16:53 UTC
Wind
  • 020° at 3 KTS
Visibility
10 SM
Flight Rules
MVFR
Cloud Levels
  • Overcast at 2,300' AGL
Temperature
12°C / 54°F
Dewpoint
C / 43°F
Humidity
67%
Altimeter
30.06" Hg
Pressure
1017.92 hPa